Time;durP1;ratioP1;P1;durP2;ratioP2;P2;SDS_P1;SDS_P2;PMS_P1;PMS_P2;Temp;Humidity;BMP_temperature;BMP_pressure;BME280_temperature;BME280_humidity;BME280_pressure;Samples;Min_cycle;Max_cycle;Signal;HPM_P1;HPM_P2
2021/12/07 00:01:54;;;;;;;55.00;26.45;;;1.80;99.90;;;;;;5067066;28;20509;-44
2021/12/07 00:04:20;;;;;;;58.80;26.90;;;1.80;99.90;;;;;;5067944;28;20113;-44
2021/12/07 00:06:46;;;;;;;53.55;26.80;;;1.80;99.90;;;;;;5069685;28;20070;-44
2021/12/07 00:09:15;;;;;;;84.63;29.45;;;1.70;99.90;;;;;;5071448;28;20540;-43
2021/12/07 00:11:41;;;;;;;71.85;28.70;;;1.70;99.90;;;;;;5071115;28;20048;-44
2021/12/07 00:14:21;;;;;;;64.10;28.23;;;1.70;99.90;;;;;;5071480;28;20045;-43
2021/12/07 00:16:47;;;;;;;62.13;26.50;;;2.50;99.90;;;;;;5071073;28;20055;-44
2021/12/07 00:19:13;;;;;;;55.72;25.60;;;1.60;99.90;;;;;;5071613;28;20597;-44
2021/12/07 00:21:41;;;;;;;67.65;27.42;;;1.50;99.90;;;;;;5070990;28;20041;-45
2021/12/07 00:24:08;;;;;;;58.35;27.10;;;1.60;99.90;;;;;;5071230;28;20592;-45
2021/12/07 00:26:33;;;;;;;62.55;27.70;;;1.50;99.90;;;;;;5071044;28;20084;-43
2021/12/07 00:29:02;;;;;;;78.15;28.05;;;1.30;99.90;;;;;;5071308;28;20495;-43
2021/12/07 00:31:30;;;;;;;87.47;29.75;;;1.40;99.90;;;;;;5070909;28;20048;-43
2021/12/07 00:36:36;;;;;;;65.25;27.50;;;1.30;99.90;;;;;;5071089;28;20084;-44
2021/12/07 00:39:05;;;;;;;61.28;27.30;;;1.20;99.90;;;;;;5070978;28;20040;-43
2021/12/07 00:41:31;;;;;;;76.50;28.17;;;1.20;99.90;;;;;;5053453;28;20371;-43
2021/12/07 00:43:57;;;;;;;94.93;30.73;;;1.20;99.90;;;;;;5071067;28;20505;-44
2021/12/07 00:46:35;;;;;;;66.75;27.33;;;1.20;99.90;;;;;;5071049;28;20044;-43
2021/12/07 00:49:03;;;;;;;75.45;27.45;;;1.20;99.90;;;;;;5071054;28;20561;-43
2021/12/07 00:51:29;;;;;;;118.70;31.70;;;1.10;99.90;;;;;;5070855;28;20488;-45
2021/12/07 00:53:54;;;;;;;75.18;29.27;;;1.10;99.90;;;;;;5071654;28;20040;-43
2021/12/07 00:56:21;;;;;;;79.47;29.75;;;1.10;99.90;;;;;;5071635;28;20052;-43
2021/12/07 00:58:47;;;;;;;120.70;30.92;;;1.00;99.90;;;;;;5070356;28;20043;-43
2021/12/07 01:01:16;;;;;;;94.47;30.02;;;1.00;99.90;;;;;;5069858;28;20158;-45
2021/12/07 01:03:43;;;;;;;73.80;28.48;;;1.00;99.90;;;;;;5070397;28;20040;-44
2021/12/07 01:25:05;;;;;;;146.15;33.47;;;0.90;99.90;;;;;;5070763;28;20054;-45
2021/12/07 01:27:31;;;;;;;107.07;30.20;;;0.80;99.90;;;;;;5068118;28;20106;-43
2021/12/07 01:30:38;;;;;;;126.63;32.33;;;0.80;99.90;;;;;;5070904;28;20056;-43
2021/12/07 01:59:33;;;;;;;86.65;26.98;;;0.40;99.90;;;;;;5069854;28;20056;-43
2021/12/07 02:02:03;;;;;;;118.10;30.45;;;0.40;99.90;;;;;;5068399;28;20438;-43
2021/12/07 02:04:29;;;;;;;118.65;30.33;;;0.40;99.90;;;;;;5069820;28;20048;-43
2021/12/07 02:06:55;;;;;;;103.07;29.88;;;0.40;99.90;;;;;;5069385;28;20127;-45
2021/12/07 02:09:21;;;;;;;89.20;27.75;;;0.40;99.90;;;;;;5069222;28;20101;-44
2021/12/07 02:11:50;;;;;;;113.28;28.65;;;0.40;99.90;;;;;;5069209;28;20051;-43
2021/12/07 02:14:16;;;;;;;91.63;27.33;;;0.40;99.90;;;;;;5069615;28;20181;-43
2021/12/07 02:16:55;;;;;;;96.13;29.35;;;1.60;99.90;;;;;;5069176;28;20483;-44
2021/12/07 02:19:23;;;;;;;97.97;27.17;;;0.40;99.90;;;;;;5069405;28;20052;-43
2021/12/07 02:21:49;;;;;;;96.72;28.23;;;0.40;99.90;;;;;;5068888;28;20036;-44
2021/12/07 02:24:21;;;;;;;132.85;31.40;;;0.40;99.90;;;;;;5070083;28;20450;-43
2021/12/07 02:26:47;;;;;;;148.88;31.08;;;0.40;99.90;;;;;;5068939;28;20064;-43
2021/12/07 02:29:14;;;;;;;237.93;36.13;;;0.40;99.90;;;;;;5069502;28;20119;-44
2021/12/07 02:31:41;;;;;;;105.80;28.42;;;0.40;99.90;;;;;;5070374;28;20109;-44
2021/12/07 02:34:07;;;;;;;108.85;30.02;;;0.40;99.90;;;;;;5068982;28;20052;-45
2021/12/07 02:36:33;;;;;;;119.85;28.45;;;0.40;99.90;;;;;;5068611;28;20049;-44
2021/12/07 02:38:59;;;;;;;138.75;31.88;;;0.40;99.90;;;;;;5050988;28;20511;-44
2021/12/07 02:41:25;;;;;;;108.97;28.35;;;0.50;99.90;;;;;;5069124;28;20040;-44
2021/12/07 02:43:51;;;;;;;96.75;27.48;;;0.50;99.90;;;;;;5068406;28;20449;-44
2021/12/07 02:46:17;;;;;;;113.28;28.92;;;0.50;99.90;;;;;;5068635;28;20040;-44
2021/12/07 02:48:43;;;;;;;86.70;27.15;;;0.50;99.90;;;;;;5068713;28;20044;-43
2021/12/07 02:51:10;;;;;;;90.95;27.42;;;0.50;99.90;;;;;;5068341;28;20048;-43
2021/12/07 02:53:37;;;;;;;82.75;26.40;;;0.40;99.90;;;;;;5068414;28;20044;-45
2021/12/07 02:56:18;;;;;;;78.38;26.50;;;0.50;99.90;;;;;;5068463;28;20036;-43
2021/12/07 02:58:44;;;;;;;93.28;26.35;;;0.50;99.90;;;;;;5068888;28;20047;-43
2021/12/07 03:01:19;;;;;;;121.15;28.42;;;0.50;99.90;;;;;;5066958;28;20510;-44
2021/12/07 03:04:21;;;;;;;90.60;27.20;;;0.50;99.90;;;;;;5068402;28;20041;-43
2021/12/07 03:28:50;;;;;;;97.97;29.52;;;0.60;99.90;;;;;;5006087;28;20049;-43
2021/12/07 03:31:17;;;;;;;87.70;29.00;;;0.60;99.90;;;;;;5041268;28;20045;-43
2021/12/07 03:33:43;;;;;;;99.43;31.42;;;0.60;99.90;;;;;;5048194;28;20037;-44
2021/12/07 03:36:11;;;;;;;115.03;31.48;;;0.60;99.90;;;;;;5048069;28;20041;-43
2021/12/07 03:38:47;;;;;;;224.60;35.78;;;0.60;99.90;;;;;;5048410;28;20036;-43
2021/12/07 03:41:13;;;;;;;107.32;31.50;;;0.50;99.90;;;;;;5051013;28;20406;-43
2021/12/07 03:43:40;;;;;;;105.85;31.75;;;0.50;99.90;;;;;;5054559;28;20083;-43
2021/12/07 03:46:06;;;;;;;99.20;30.80;;;0.50;99.90;;;;;;5054354;28;20051;-43
2021/12/07 03:48:32;;;;;;;86.20;29.67;;;0.40;99.90;;;;;;5054798;28;20076;-43
2021/12/07 03:50:57;;;;;;;93.60;32.67;;;0.40;99.90;;;;;;5054469;28;20086;-44
2021/12/07 03:53:24;;;;;;;109.70;32.90;;;0.50;99.90;;;;;;5054903;28;20036;-43
2021/12/07 03:55:49;;;;;;;111.47;31.75;;;0.40;99.90;;;;;;5054432;28;20049;-43
2021/12/07 03:58:15;;;;;;;127.90;33.10;;;0.40;99.90;;;;;;5054455;28;20121;-43
2021/12/07 04:00:44;;;;;;;91.90;30.55;;;0.40;99.90;;;;;;5053271;28;20605;-44
2021/12/07 04:03:12;;;;;;;107.85;33.03;;;0.50;99.90;;;;;;5054486;28;20041;-43
2021/12/07 04:05:50;;;;;;;102.68;32.63;;;0.50;99.90;;;;;;5054809;28;20037;-43
2021/12/07 04:08:24;;;;;;;111.22;32.08;;;0.50;99.90;;;;;;5054437;28;20037;-45
2021/12/07 04:10:51;;;;;;;136.48;34.05;;;0.50;99.90;;;;;;5054339;28;20040;-44
2021/12/07 04:13:17;;;;;;;108.78;32.42;;;0.50;99.90;;;;;;5054590;28;20056;-42
2021/12/07 04:15:43;;;;;;;103.47;34.05;;;0.50;99.90;;;;;;5054443;28;20417;-43
2021/12/07 04:18:09;;;;;;;115.35;32.83;;;0.50;99.90;;;;;;5054638;28;20430;-43
2021/12/07 04:20:36;;;;;;;115.10;33.30;;;0.50;99.90;;;;;;5054333;28;20036;-43
2021/12/07 04:23:02;;;;;;;103.47;31.75;;;0.50;99.90;;;;;;5054436;28;20051;-43
2021/12/07 04:25:27;;;;;;;135.40;36.33;;;0.40;99.90;;;;;;5054507;28;20044;-43
2021/12/07 04:27:54;;;;;;;165.73;36.25;;;0.50;99.90;;;;;;5070195;28;20052;-43
2021/12/07 04:30:36;;;;;;;166.88;37.22;;;0.40;99.90;;;;;;5074201;28;20060;-43
2021/12/07 04:33:05;;;;;;;128.13;34.65;;;0.40;99.90;;;;;;5074419;28;20054;-43
2021/12/07 04:35:32;;;;;;;102.88;29.75;;;0.30;99.90;;;;;;5074147;28;20579;-43
2021/12/07 04:37:58;;;;;;;111.43;32.95;;;0.40;99.90;;;;;;5074478;28;20071;-43
2021/12/07 04:40:27;;;;;;;122.80;35.25;;;0.40;99.90;;;;;;5074373;28;20566;-43
2021/12/07 04:42:53;;;;;;;149.90;35.83;;;0.40;99.90;;;;;;5074883;28;20110;-43
2021/12/07 04:45:37;;;;;;;128.02;34.85;;;0.40;99.90;;;;;;5074038;28;20059;-43
2021/12/07 04:59:05;;;;;;;137.07;33.03;;;-0.10;99.90;;;;;;5053527;28;20185;-43
2021/12/07 05:01:32;;;;;;;105.65;31.88;;;-0.20;99.90;;;;;;5069893;28;20083;-43
2021/12/07 05:04:01;;;;;;;149.45;32.83;;;-0.30;99.90;;;;;;5071119;28;20080;-43
2021/12/07 05:06:30;;;;;;;137.30;33.42;;;-0.40;99.90;;;;;;5071020;28;20046;-44
2021/12/07 05:09:07;;;;;;;124.00;32.53;;;-0.40;99.90;;;;;;5071430;28;20039;-43
2021/12/07 05:14:32;;;;;;;113.25;29.90;;;-0.40;99.90;;;;;;5039341;28;20048;-42
2021/12/07 05:17:19;;;;;;;136.52;34.08;;;-0.30;99.90;;;;;;5070370;28;20080;-48
2021/12/07 05:38:53;;;;;;;135.65;31.10;;;-0.70;99.90;;;;;;5070573;28;20051;-43
2021/12/07 05:41:19;;;;;;;134.82;32.08;;;-0.70;99.90;;;;;;5070516;28;20032;-44
2021/12/07 05:43:46;;;;;;;105.20;29.55;;;-0.70;99.90;;;;;;5068871;28;20402;-42
2021/12/07 05:46:12;;;;;;;122.53;29.77;;;-0.30;99.90;;;;;;5050549;28;20134;-42
2021/12/07 05:48:38;;;;;;;113.30;29.70;;;-0.60;99.90;;;;;;5049217;28;20446;-42
2021/12/07 05:51:03;;;;;;;122.47;30.42;;;-2.20;99.90;;;;;;5050422;28;20049;-42
2021/12/07 05:53:29;;;;;;;114.38;30.10;;;-0.70;99.90;;;;;;5049854;28;20041;-40
2021/12/07 05:55:55;;;;;;;100.90;28.23;;;-0.70;99.90;;;;;;5049921;28;20041;-44
2021/12/07 05:58:21;;;;;;;116.55;28.88;;;-0.70;99.90;;;;;;5050323;28;20041;-43
2021/12/07 06:00:48;;;;;;;107.53;26.67;;;-0.70;99.90;;;;;;5060139;28;20036;-43
2021/12/07 06:03:15;;;;;;;142.32;29.27;;;-0.70;99.90;;;;;;5069723;28;20068;-43
2021/12/07 06:05:42;;;;;;;93.43;26.05;;;-0.70;99.90;;;;;;5070148;28;20041;-42
2021/12/07 06:08:08;;;;;;;144.25;29.38;;;-0.70;99.90;;;;;;5070058;28;20044;-38
2021/12/07 06:10:35;;;;;;;101.07;26.65;;;-0.70;99.90;;;;;;5061224;28;20545;-46
2021/12/07 06:13:01;;;;;;;109.97;27.92;;;-0.70;99.90;;;;;;5048544;28;20391;-43
2021/12/07 06:15:31;;;;;;;128.63;26.83;;;-0.70;99.90;;;;;;5058142;28;20572;-43
2021/12/07 06:18:17;;;;;;;111.63;25.83;;;-0.50;99.90;;;;;;5069679;28;20652;-43
2021/12/07 06:20:55;;;;;;;103.68;25.23;;;-0.30;99.90;;;;;;5069028;28;20040;-45
2021/12/07 06:23:21;;;;;;;129.35;28.63;;;-0.30;99.90;;;;;;5069110;28;20051;-45
2021/12/07 06:25:51;;;;;;;105.47;26.65;;;-0.30;99.90;;;;;;5069284;28;20040;-45
2021/12/07 06:28:17;;;;;;;102.82;25.95;;;-0.20;99.90;;;;;;5069103;28;20053;-45
2021/12/07 06:30:45;;;;;;;106.45;25.23;;;-0.20;99.90;;;;;;5069372;28;20483;-45
2021/12/07 06:33:12;;;;;;;104.47;24.80;;;-0.20;99.90;;;;;;5069495;28;20044;-45
2021/12/07 06:35:38;;;;;;;108.05;25.13;;;-0.10;99.90;;;;;;5052230;28;20387;-46
2021/12/07 06:38:04;;;;;;;89.07;24.30;;;0.00;99.90;;;;;;5069234;28;20040;-44
2021/12/07 06:40:30;;;;;;;96.90;23.85;;;-0.10;99.90;;;;;;5068869;28;20044;-45
2021/12/07 06:42:59;;;;;;;81.45;23.00;;;-0.10;99.90;;;;;;5069213;28;20048;-44
2021/12/07 06:45:26;;;;;;;84.43;21.17;;;-0.10;99.90;;;;;;5068815;28;20055;-46
2021/12/07 06:47:53;;;;;;;79.30;23.30;;;-0.20;99.90;;;;;;5069063;28;20048;-45
2021/12/07 06:50:19;;;;;;;89.93;24.35;;;-0.10;99.90;;;;;;5069752;28;20630;-45
2021/12/07 06:52:46;;;;;;;95.18;23.58;;;-0.10;99.90;;;;;;5069246;28;20044;-45
2021/12/07 06:55:11;;;;;;;90.30;23.25;;;-0.10;99.90;;;;;;5069525;28;20056;-46
2021/12/07 06:57:37;;;;;;;85.75;21.52;;;-0.10;99.90;;;;;;5068651;28;20040;-45
2021/12/07 07:00:09;;;;;;;113.15;23.95;;;-0.10;99.90;;;;;;5067444;28;20458;-44
2021/12/07 07:02:34;;;;;;;87.88;24.20;;;-0.10;99.90;;;;;;5068772;28;20044;-45
2021/12/07 07:05:00;;;;;;;100.45;23.98;;;-0.10;99.90;;;;;;5068345;28;20048;-45
2021/12/07 07:07:26;;;;;;;106.15;25.63;;;-0.10;99.90;;;;;;5069041;28;20047;-44
2021/12/07 07:09:52;;;;;;;87.20;23.92;;;-0.10;99.90;;;;;;5068517;28;20051;-45
2021/12/07 07:12:18;;;;;;;101.15;25.15;;;-0.20;99.90;;;;;;5068275;28;20486;-45
2021/12/07 07:14:45;;;;;;;101.78;24.50;;;-0.20;99.90;;;;;;5068401;28;20048;-45
2021/12/07 07:17:11;;;;;;;119.18;26.60;;;-0.20;99.90;;;;;;5067881;28;20390;-45
2021/12/07 07:19:37;;;;;;;141.73;27.88;;;-0.30;99.90;;;;;;5068169;28;20051;-45
2021/12/07 07:22:03;;;;;;;130.57;25.13;;;-0.30;99.90;;;;;;5068587;28;20037;-45
2021/12/07 07:24:30;;;;;;;125.18;25.88;;;-0.40;99.90;;;;;;5068348;28;20047;-44
2021/12/07 07:26:57;;;;;;;141.88;26.17;;;-0.40;99.90;;;;;;5063847;28;20182;-45
2021/12/07 07:29:22;;;;;;;112.72;25.25;;;-0.40;99.90;;;;;;5068472;28;20414;-45
2021/12/07 07:31:48;;;;;;;118.07;26.20;;;-0.50;99.90;;;;;;5068183;28;20044;-45
2021/12/07 07:34:14;;;;;;;112.78;25.80;;;-0.50;99.90;;;;;;5068139;28;20194;-44
2021/12/07 07:36:39;;;;;;;120.75;24.63;;;-0.50;99.90;;;;;;5068290;28;20049;-45
2021/12/07 07:39:05;;;;;;;187.70;27.10;;;0.60;99.90;;;;;;5068182;28;20136;-45
2021/12/07 07:41:31;;;;;;;145.15;25.80;;;-0.50;99.90;;;;;;5067766;28;20412;-44
2021/12/07 07:43:57;;;;;;;128.82;24.20;;;-0.50;99.90;;;;;;5068238;28;20051;-45
2021/12/07 07:46:23;;;;;;;173.63;26.65;;;-0.50;99.90;;;;;;5068041;28;20067;-46
2021/12/07 07:48:49;;;;;;;178.20;27.85;;;-0.50;99.90;;;;;;5068234;28;20474;-46
2021/12/07 07:51:15;;;;;;;93.57;23.58;;;-0.50;99.90;;;;;;5067920;28;20079;-45
2021/12/07 07:53:41;;;;;;;202.80;28.70;;;-0.50;99.90;;;;;;5067742;28;20547;-45
2021/12/07 07:56:08;;;;;;;143.13;27.17;;;-0.50;99.90;;;;;;5066500;28;20055;-47
2021/12/07 07:58:33;;;;;;;107.85;25.13;;;1.00;99.90;;;;;;5052974;28;20123;-45
2021/12/07 08:00:59;;;;;;;123.82;27.45;;;-0.60;99.90;;;;;;5052825;28;20487;-55
2021/12/07 08:03:25;;;;;;;116.53;26.67;;;-0.60;99.90;;;;;;5045433;28;20052;-45
2021/12/07 08:05:51;;;;;;;136.65;29.00;;;-0.50;99.90;;;;;;5044661;28;20037;-46
2021/12/07 08:08:19;;;;;;;142.18;27.50;;;-0.40;99.90;;;;;;5047470;28;20041;-46
2021/12/07 08:10:45;;;;;;;162.98;29.33;;;-0.40;99.90;;;;;;5047976;28;20041;-45
2021/12/07 08:13:11;;;;;;;126.20;27.15;;;-0.40;99.90;;;;;;5029886;28;20052;-45
2021/12/07 08:15:42;;;;;;;153.93;30.52;;;-0.30;99.90;;;;;;5048057;28;20048;-46
2021/12/07 08:18:09;;;;;;;100.65;25.73;;;-0.40;99.90;;;;;;5047902;28;20052;-45
2021/12/07 08:20:36;;;;;;;86.88;25.73;;;-0.40;99.90;;;;;;5047985;28;20045;-45
2021/12/07 08:23:06;;;;;;;103.78;25.88;;;-0.40;99.90;;;;;;5047896;28;20052;-45
2021/12/07 08:25:38;;;;;;;97.93;26.20;;;0.20;99.90;;;;;;5048646;28;20041;-46
2021/12/07 08:28:07;;;;;;;103.95;25.50;;;-0.30;99.90;;;;;;5050981;28;20557;-46
2021/12/07 08:30:34;;;;;;;116.05;27.90;;;-0.30;99.90;;;;;;5052062;28;20091;-45
2021/12/07 08:33:00;;;;;;;108.32;27.63;;;-0.30;99.90;;;;;;5051714;28;20678;-46
2021/12/07 08:35:26;;;;;;;122.28;28.08;;;-0.40;99.90;;;;;;5051405;28;20045;-46
2021/12/07 08:37:51;;;;;;;95.70;26.25;;;-0.20;99.90;;;;;;5051022;28;20049;-47
2021/12/07 08:40:22;;;;;;;109.90;28.13;;;-0.10;99.90;;;;;;5033618;28;20116;-46
2021/12/07 08:42:48;;;;;;;91.55;25.23;;;-0.10;99.90;;;;;;5051162;28;20118;-45
2021/12/07 08:45:14;;;;;;;104.68;26.00;;;-0.10;99.90;;;;;;5051439;28;20099;-46
2021/12/07 08:47:40;;;;;;;105.28;27.58;;;0.00;99.90;;;;;;5051066;28;20515;-46
2021/12/07 08:50:09;;;;;;;118.32;28.10;;;0.00;99.90;;;;;;5051069;28;20041;-47
2021/12/07 08:52:35;;;;;;;107.18;27.23;;;0.00;99.90;;;;;;5051230;28;20120;-45
2021/12/07 09:00:32;;;;;;;86.40;24.00;;;0.10;99.90;;;;;;5034568;28;20044;-46
2021/12/07 09:02:59;;;;;;;89.95;25.25;;;0.10;99.90;;;;;;5070786;28;20426;-45
2021/12/07 09:05:24;;;;;;;95.35;26.83;;;0.20;99.90;;;;;;5053070;28;20048;-46
2021/12/07 09:07:51;;;;;;;105.57;26.52;;;0.30;99.90;;;;;;5070392;28;20394;-46
2021/12/07 09:10:17;;;;;;;148.25;30.92;;;0.30;99.90;;;;;;5071002;28;20120;-45
2021/12/07 09:12:43;;;;;;;102.53;26.55;;;0.30;99.90;;;;;;5070630;28;20047;-46
2021/12/07 09:15:10;;;;;;;87.47;24.17;;;0.20;99.90;;;;;;5070818;28;20036;-46
2021/12/07 09:17:37;;;;;;;110.60;27.20;;;0.50;99.90;;;;;;5070590;28;20047;-45
2021/12/07 09:20:10;;;;;;;96.50;27.45;;;0.50;99.90;;;;;;5070723;28;20046;-45
2021/12/07 09:22:36;;;;;;;85.20;24.10;;;0.80;99.90;;;;;;5070730;28;20489;-45
2021/12/07 09:25:03;;;;;;;100.38;26.58;;;0.90;99.90;;;;;;5052318;28;20072;-46
2021/12/07 09:27:29;;;;;;;72.53;23.23;;;1.00;99.90;;;;;;5070487;28;20044;-46
2021/12/07 09:29:55;;;;;;;86.32;25.67;;;1.00;99.90;;;;;;5070125;28;20052;-45
2021/12/07 09:32:21;;;;;;;85.90;25.33;;;0.90;99.90;;;;;;5070560;28;20044;-45
2021/12/07 09:34:46;;;;;;;116.68;26.70;;;0.90;99.90;;;;;;5070134;28;20397;-47
2021/12/07 09:37:13;;;;;;;85.53;24.60;;;0.90;99.90;;;;;;5070187;28;20094;-45
2021/12/07 09:39:38;;;;;;;108.65;25.08;;;0.90;99.90;;;;;;5069506;28;20587;-46
2021/12/07 09:42:04;;;;;;;88.95;24.85;;;0.90;99.90;;;;;;5070182;28;20040;-45
2021/12/07 09:44:30;;;;;;;64.88;22.45;;;0.90;99.90;;;;;;5071054;28;20048;-46
2021/12/07 09:46:56;;;;;;;85.97;23.42;;;2.10;99.90;;;;;;5070106;28;20479;-46
2021/12/07 09:49:21;;;;;;;74.68;22.63;;;1.00;99.90;;;;;;5070329;28;20048;-46
2021/12/07 09:51:47;;;;;;;65.35;21.20;;;1.20;99.90;;;;;;5051914;28;20048;-46
2021/12/07 09:54:13;;;;;;;73.60;22.60;;;1.20;99.90;;;;;;5070145;28;20036;-46
2021/12/07 09:56:39;;;;;;;62.97;22.77;;;1.30;99.90;;;;;;5069623;28;20459;-47
2021/12/07 09:59:08;;;;;;;81.32;24.27;;;1.30;99.90;;;;;;5069684;28;20128;-47
2021/12/07 10:01:35;;;;;;;79.50;23.20;;;1.40;99.90;;;;;;5068844;28;20406;-46
2021/12/07 10:04:01;;;;;;;70.28;22.63;;;1.40;99.90;;;;;;5069443;28;20052;-45
2021/12/07 10:06:27;;;;;;;63.08;22.80;;;1.50;99.90;;;;;;5070066;28;20044;-46
2021/12/07 10:08:53;;;;;;;60.97;19.45;;;1.80;99.90;;;;;;5069673;28;20048;-45
2021/12/07 10:11:18;;;;;;;65.85;19.55;;;1.60;99.90;;;;;;5070209;28;20110;-45
2021/12/07 10:13:50;;;;;;;72.55;21.27;;;1.80;99.90;;;;;;5070025;28;20051;-45
2021/12/07 10:16:18;;;;;;;57.13;17.17;;;1.80;99.90;;;;;;5070316;28;20071;-46
2021/12/07 10:18:44;;;;;;;63.40;20.40;;;1.70;99.90;;;;;;5069526;28;20052;-46
2021/12/07 10:21:23;;;;;;;65.10;21.58;;;2.00;99.90;;;;;;5069445;28;20059;-46
2021/12/07 10:23:54;;;;;;;67.82;20.55;;;2.20;99.90;;;;;;5069622;28;20040;-46
2021/12/07 10:26:26;;;;;;;67.32;21.38;;;2.40;99.90;;;;;;5069786;28;20569;-46
2021/12/07 10:28:55;;;;;;;65.43;19.20;;;2.40;99.90;;;;;;5069309;28;20057;-46
2021/12/07 10:31:26;;;;;;;56.72;20.60;;;2.40;99.90;;;;;;5069551;28;20053;-46
2021/12/07 10:33:59;;;;;;;63.63;21.02;;;3.60;99.90;;;;;;5069860;28;20036;-45
2021/12/07 10:36:27;;;;;;;66.55;18.70;;;2.70;99.90;;;;;;5051646;28;20542;-45
2021/12/07 10:39:21;;;;;;;63.03;19.40;;;2.70;99.90;;;;;;5069567;28;20147;-46
2021/12/07 10:41:51;;;;;;;60.80;19.60;;;2.60;99.90;;;;;;5051575;28;20044;-45
2021/12/07 10:44:31;;;;;;;53.05;19.42;;;2.50;99.90;;;;;;5069037;28;20120;-45
2021/12/07 10:47:01;;;;;;;56.03;18.40;;;2.50;99.90;;;;;;5068801;28;20123;-47
2021/12/07 10:49:42;;;;;;;55.17;18.10;;;2.40;99.90;;;;;;5069007;28;20045;-46
2021/12/07 10:52:13;;;;;;;56.38;20.40;;;2.40;99.90;;;;;;5067935;28;20080;-45
2021/12/07 10:54:53;;;;;;;51.88;18.52;;;2.40;99.90;;;;;;5068816;28;20115;-46
2021/12/07 10:57:38;;;;;;;44.72;17.10;;;2.50;99.90;;;;;;5068628;28;20041;-45
2021/12/07 11:00:16;;;;;;;54.17;18.05;;;2.50;99.90;;;;;;5067327;28;20040;-46
2021/12/07 11:03:03;;;;;;;56.95;19.00;;;2.60;99.90;;;;;;5068640;28;20044;-45
2021/12/07 11:05:37;;;;;;;57.90;19.35;;;2.60;99.90;;;;;;5067832;28;20098;-46
2021/12/07 11:08:05;;;;;;;48.58;16.48;;;2.70;99.90;;;;;;5068182;28;20072;-45
2021/12/07 11:10:45;;;;;;;49.45;16.80;;;2.70;99.90;;;;;;5068507;28;20048;-45
2021/12/07 11:13:33;;;;;;;50.78;17.63;;;2.70;99.90;;;;;;5068728;28;20102;-45
2021/12/07 11:16:06;;;;;;;46.30;16.05;;;2.80;99.90;;;;;;5068888;28;20048;-45
2021/12/07 11:18:36;;;;;;;48.58;17.20;;;2.80;99.90;;;;;;5068723;28;20036;-45
2021/12/07 11:21:08;;;;;;;51.50;18.10;;;2.80;99.90;;;;;;5068573;28;20037;-46
2021/12/07 11:23:42;;;;;;;38.35;17.02;;;2.80;99.90;;;;;;5068940;28;20044;-46
2021/12/07 11:31:32;;;;;;;40.17;17.42;;;3.00;99.90;;;;;;5068635;28;20136;-45
2021/12/07 11:34:14;;;;;;;42.03;16.42;;;3.00;99.90;;;;;;5068178;28;20126;-46
2021/12/07 11:36:47;;;;;;;43.25;15.73;;;3.10;99.90;;;;;;5068756;28;20123;-45
2021/12/07 11:39:31;;;;;;;42.90;16.50;;;2.80;99.90;;;;;;5068075;28;20418;-46
2021/12/07 11:42:25;;;;;;;48.00;15.13;;;4.10;99.90;;;;;;5068430;28;20062;-45
2021/12/07 11:45:10;;;;;;;32.20;14.88;;;3.20;99.90;;;;;;5068026;28;20072;-45
2021/12/07 11:47:43;;;;;;;42.90;14.45;;;3.20;99.90;;;;;;5067846;28;20098;-46
2021/12/07 11:50:41;;;;;;;32.95;14.27;;;3.30;99.90;;;;;;5067898;28;20036;-44
2021/12/07 11:53:10;;;;;;;40.60;15.43;;;3.20;99.90;;;;;;5023689;28;20127;-45
2021/12/07 11:55:40;;;;;;;44.20;17.77;;;3.30;99.90;;;;;;5068369;28;20047;-45
2021/12/07 11:58:07;;;;;;;43.70;16.30;;;3.40;99.90;;;;;;5068093;28;20501;-45
2021/12/07 12:00:44;;;;;;;36.80;15.60;;;3.40;99.90;;;;;;5067185;28;20106;-45
2021/12/07 12:03:16;;;;;;;40.42;15.95;;;3.40;99.90;;;;;;5071705;28;20080;-45
2021/12/07 12:05:43;;;;;;;;;;;3.50;99.90;;;;;;5073164;28;20051;-45
2021/12/07 12:08:09;;;;;;;43.15;15.25;;;3.50;99.90;;;;;;5071979;28;20381;-45
2021/12/07 12:10:39;;;;;;;40.72;15.57;;;3.50;99.90;;;;;;5071871;28;20044;-46
2021/12/07 12:13:12;;;;;;;40.15;15.20;;;4.40;99.90;;;;;;5054191;28;20040;-45
2021/12/07 12:15:53;;;;;;;41.70;15.77;;;3.50;99.90;;;;;;5071598;28;20044;-46
2021/12/07 12:18:29;;;;;;;45.92;16.13;;;3.60;99.90;;;;;;5071726;28;20044;-45
2021/12/07 12:21:01;;;;;;;42.38;16.52;;;3.60;99.90;;;;;;5071778;28;20152;-47
2021/12/07 12:23:48;;;;;;;43.70;16.65;;;3.60;99.90;;;;;;5071622;28;20119;-47
2021/12/07 12:26:22;;;;;;;38.83;15.93;;;3.60;99.90;;;;;;5053400;28;20063;-46
2021/12/07 12:28:49;;;;;;;37.95;15.45;;;3.70;99.90;;;;;;5071922;28;20546;-46
2021/12/07 12:31:17;;;;;;;32.92;15.27;;;3.60;99.90;;;;;;5071267;28;20044;-46
2021/12/07 12:33:53;;;;;;;38.78;14.88;;;3.70;99.90;;;;;;5071308;28;20561;-46
2021/12/07 12:36:23;;;;;;;33.58;14.88;;;3.70;99.90;;;;;;5070964;28;20509;-45
2021/12/07 12:39:01;;;;;;;37.30;14.73;;;4.20;99.90;;;;;;5071276;28;20040;-46
2021/12/07 12:41:27;;;;;;;35.42;14.90;;;3.70;99.90;;;;;;5071655;28;20056;-47
2021/12/07 12:43:56;;;;;;;41.80;14.68;;;3.70;99.90;;;;;;5071215;28;20097;-47
2021/12/07 12:46:31;;;;;;;43.40;16.70;;;3.70;99.90;;;;;;5071162;28;20371;-46
2021/12/07 12:49:01;;;;;;;36.10;15.38;;;3.70;99.90;;;;;;5071180;28;20498;-45
2021/12/07 12:51:32;;;;;;;31.95;13.38;;;3.50;99.90;;;;;;5071228;28;20036;-46
2021/12/07 12:53:58;;;;;;;31.50;14.52;;;3.60;99.90;;;;;;5071691;28;20443;-45
2021/12/07 12:56:30;;;;;;;31.77;15.32;;;3.60;99.90;;;;;;5070647;28;20044;-46
2021/12/07 12:59:00;;;;;;;45.85;17.15;;;3.60;99.90;;;;;;5053389;28;20390;-45
2021/12/07 13:01:28;;;;;;;45.28;17.05;;;3.60;99.90;;;;;;5069492;28;20052;-46
2021/12/07 13:04:31;;;;;;;31.67;14.63;;;3.60;99.90;;;;;;5071109;28;20044;-45
2021/12/07 13:07:05;;;;;;;;;;;3.60;99.90;;;;;;4989239;28;20050;-45
2021/12/07 13:09:35;;;;;;;43.38;16.00;;;3.60;99.90;;;;;;5042394;28;20454;-45
2021/12/07 13:12:06;;;;;;;36.33;15.65;;;3.50;99.90;;;;;;5070719;28;20497;-45
2021/12/07 13:14:50;;;;;;;37.97;15.90;;;3.60;99.90;;;;;;5069392;28;20040;-45
2021/12/07 13:17:34;;;;;;;38.03;16.42;;;3.60;99.90;;;;;;5070348;28;20055;-46
2021/12/07 13:20:06;;;;;;;39.72;17.58;;;3.60;99.90;;;;;;5070759;28;20151;-45
2021/12/07 13:22:47;;;;;;;34.97;17.00;;;3.60;99.90;;;;;;5070517;28;20054;-46
2021/12/07 13:25:45;;;;;;;36.95;16.83;;;3.60;99.90;;;;;;5070887;28;20383;-45
2021/12/07 13:28:25;;;;;;;51.85;19.45;;;3.70;99.90;;;;;;5052278;28;20052;-46
2021/12/07 13:31:12;;;;;;;36.80;16.35;;;3.70;99.90;;;;;;5070551;28;20040;-47
2021/12/07 13:33:57;;;;;;;40.95;15.90;;;3.70;99.90;;;;;;5070217;28;20040;-45
2021/12/07 13:36:50;;;;;;;50.53;18.02;;;3.70;99.90;;;;;;5070191;28;20040;-45
2021/12/07 13:39:18;;;;;;;44.85;17.95;;;3.70;99.90;;;;;;5070883;28;20153;-46
2021/12/07 13:42:25;;;;;;;55.05;17.02;;;3.70;99.90;;;;;;5070627;28;20458;-45
2021/12/07 13:45:05;;;;;;;39.83;16.65;;;3.70;99.90;;;;;;4988574;28;20116;-45
2021/12/07 13:47:37;;;;;;;42.03;16.95;;;3.70;99.90;;;;;;4988492;28;20100;-45
2021/12/07 13:50:13;;;;;;;36.22;15.43;;;3.60;99.90;;;;;;5039312;28;20521;-45
2021/12/07 13:52:45;;;;;;;39.25;16.35;;;3.60;99.90;;;;;;5069986;28;20397;-45
2021/12/07 13:55:19;;;;;;;37.47;15.70;;;3.60;99.90;;;;;;5070288;28;20394;-46
2021/12/07 13:57:50;;;;;;;35.58;14.27;;;3.50;99.90;;;;;;5069872;28;20049;-46
2021/12/07 14:00:25;;;;;;;35.60;15.68;;;3.50;99.90;;;;;;5068567;28;20529;-46
2021/12/07 14:02:57;;;;;;;46.47;18.15;;;3.20;99.90;;;;;;5069824;28;20036;-45
2021/12/07 14:05:25;;;;;;;49.70;20.45;;;3.40;99.90;;;;;;5069605;28;20115;-46
2021/12/07 14:07:54;;;;;;;45.78;18.17;;;3.40;99.90;;;;;;5069766;28;20038;-46
2021/12/07 14:10:30;;;;;;;58.25;22.83;;;3.30;99.90;;;;;;5069624;28;20062;-45
2021/12/07 14:12:58;;;;;;;58.92;23.48;;;3.30;99.90;;;;;;5069658;28;20392;-46
2021/12/07 14:15:25;;;;;;;47.90;24.38;;;3.30;99.90;;;;;;5069349;28;20076;-46
2021/12/07 14:17:58;;;;;;;54.63;22.95;;;3.20;99.90;;;;;;5051303;28;20044;-46
2021/12/07 14:20:38;;;;;;;46.28;21.40;;;3.20;99.90;;;;;;5069380;28;20051;-46
2021/12/07 14:23:33;;;;;;;47.97;23.42;;;3.10;99.90;;;;;;5069304;28;20070;-45
2021/12/07 14:26:06;;;;;;;48.58;23.48;;;3.10;99.90;;;;;;5068864;28;20421;-45
2021/12/07 14:28:44;;;;;;;60.15;25.33;;;3.00;99.90;;;;;;5068864;28;20060;-45
2021/12/07 14:31:15;;;;;;;50.72;22.17;;;3.00;99.90;;;;;;5069333;28;20051;-47
2021/12/07 14:33:49;;;;;;;57.80;22.73;;;2.90;99.90;;;;;;5069187;28;20048;-45
2021/12/07 14:36:21;;;;;;;48.30;23.85;;;2.90;99.90;;;;;;5069304;28;20032;-45
2021/12/07 14:38:47;;;;;;;;;;;3.70;99.90;;;;;;5069286;28;20501;-45
2021/12/07 14:41:17;;;;;;;54.10;21.98;;;2.80;99.90;;;;;;5069209;28;20293;-45